Time;durP1;ratioP1;P1;durP2;ratioP2;P2;SDS_P1;SDS_P2;PMS_P1;PMS_P2;Temp;Humidity;BMP_temperature;BMP_pressure;BME280_temperature;BME280_humidity;BME280_pressure;Samples;Min_cycle;Max_cycle;Signal;HPM_P1;HPM_P2
2023/08/29 00:00:26;;;;;;;2.70;1.52;;;;;;;24.23;47.15;98882.34;4982400;28;20038;-87
2023/08/29 00:02:53;;;;;;;2.83;1.55;;;;;;;23.95;47.36;98855.88;4990892;28;20034;-88
2023/08/29 00:05:19;;;;;;;1.73;1.10;;;;;;;23.69;47.91;98855.31;4990549;28;20026;-88
2023/08/29 00:07:45;;;;;;;1.25;1.10;;;;;;;23.75;48.40;98884.44;4990611;28;20068;-87
2023/08/29 00:10:11;;;;;;;1.52;1.27;;;;;;;23.97;48.51;98914.16;4981526;28;20497;-87
2023/08/29 00:12:36;;;;;;;2.65;1.40;;;;;;;23.61;48.83;98849.72;4970975;28;20085;-89
2023/08/29 00:15:05;;;;;;;1.15;0.90;;;;;;;24.05;48.61;98907.16;4971312;28;20069;-88
2023/08/29 00:17:31;;;;;;;1.23;0.80;;;;;;;24.09;48.51;98913.13;4971865;28;20031;-87
2023/08/29 00:19:57;;;;;;;1.83;1.20;;;;;;;23.88;48.77;98892.41;4972737;28;20042;-87
2023/08/29 00:22:22;;;;;;;2.38;1.38;;;;;;;23.85;48.88;98899.84;4971294;28;20093;-89
2023/08/29 00:24:52;;;;;;;3.45;1.98;;;;;;;23.72;48.86;98865.84;4959571;28;20447;-90
2023/08/29 00:27:18;;;;;;;2.63;1.73;;;;;;;23.78;49.08;98908.41;4990738;28;20034;-88
2023/08/29 00:29:43;;;;;;;2.15;1.40;;;;;;;23.68;49.10;98910.16;4989447;28;20117;-90
2023/08/29 00:32:10;;;;;;;2.78;1.90;;;;;;;23.76;49.32;98915.78;4959390;28;20137;-90
2023/08/29 00:34:39;;;;;;;3.60;1.75;;;;;;;23.70;49.20;98920.81;4971201;28;20030;-90
2023/08/29 00:37:05;;;;;;;2.53;1.70;;;;;;;23.51;48.57;98891.81;4971872;28;20050;-92
2023/08/29 00:39:31;;;;;;;2.13;1.17;;;;;;;23.51;49.09;98906.16;4937455;28;20161;-89
2023/08/29 00:41:57;;;;;;;3.15;2.05;;;;;;;23.73;49.53;98948.31;4973310;28;20117;-90
2023/08/29 00:44:23;;;;;;;2.65;1.90;;;;;;;23.54;49.29;98929.25;4971237;28;20031;-88
2023/08/29 00:46:50;;;;;;;2.20;1.52;;;;;;;23.61;49.28;98933.16;4970709;28;20038;-88
2023/08/29 00:49:21;;;;;;;1.52;1.30;;;;;;;23.47;49.37;98909.22;4970990;28;20034;-89
2023/08/29 00:51:47;;;;;;;3.50;2.15;;;;;;;23.44;50.15;98941.75;4975114;28;20468;-89
2023/08/29 00:54:15;;;;;;;9.93;1.33;;;;;;;23.39;49.96;98932.22;4974494;28;20035;-87
2023/08/29 00:56:42;;;;;;;2.13;1.05;;;;;;;22.99;50.72;98899.53;4986309;28;20034;-88
2023/08/29 00:59:08;;;;;;;2.33;1.50;;;;;;;22.79;50.92;98876.91;4994116;28;20030;-87
2023/08/29 01:01:37;;;;;;;5.22;3.00;;;;;;;23.17;50.55;98913.38;4991838;28;20026;-87
2023/08/29 01:04:03;;;;;;;1.73;1.30;;;;;;;23.14;50.33;98905.56;4992398;28;20036;-88
2023/08/29 01:06:33;;;;;;;1.88;1.35;;;;;;;23.24;50.38;98944.19;4993721;28;20038;-88
2023/08/29 01:09:00;;;;;;;2.45;1.58;;;;;;;22.97;50.38;98905.03;4993941;28;20088;-87
2023/08/29 01:12:13;;;;;;;4.88;1.90;;;;;;;23.06;50.74;98917.75;4993906;28;20026;-88
2023/08/29 01:15:04;;;;;;;5.13;2.65;;;;;;;23.00;50.92;98931.69;4948854;29;20071;-88
2023/08/29 01:17:44;;;;;;;1.38;1.25;;;;;;;22.84;51.03;98925.78;4952700;29;20035;-88
2023/08/29 01:20:12;;;;;;;2.70;1.60;;;;;;;22.54;51.83;98897.66;4950778;29;20054;-88
2023/08/29 01:23:12;;;;;;;2.17;1.55;;;;;;;22.99;51.32;98931.81;4952949;29;20104;-88
2023/08/29 01:25:55;;;;;;;2.63;2.30;;;;;;;22.85;51.31;98903.31;4917406;29;20048;-88
2023/08/29 01:28:23;;;;;;;2.88;1.27;;;;;;;22.77;51.37;98911.09;4940854;29;20490;-87
2023/08/29 01:30:49;;;;;;;1.92;1.23;;;;;;;22.57;51.40;98873.22;4938082;29;20107;-88
2023/08/29 01:33:15;;;;;;;4.32;1.77;;;;;;;22.58;52.06;98888.34;4933872;29;20087;-88
2023/08/29 01:35:47;;;;;;;2.35;1.85;;;;;;;22.57;51.93;98883.97;4932129;29;20474;-87
2023/08/29 01:38:15;;;;;;;1.58;1.30;;;;;;;22.33;51.60;98847.25;4933171;29;20044;-90
2023/08/29 01:40:40;;;;;;;1.90;1.27;;;;;;;22.44;52.21;98869.75;4917219;29;20123;-90
2023/08/29 01:43:07;;;;;;;2.13;1.83;;;;;;;22.51;52.42;98897.88;4933505;29;20647;-90
2023/08/29 01:45:33;;;;;;;1.88;1.20;;;;;;;22.48;52.49;98882.00;4931894;29;20052;-90
2023/08/29 01:48:07;;;;;;;2.53;1.65;;;;;;;22.29;52.53;98877.13;4933035;29;20435;-89
2023/08/29 01:50:40;;;;;;;2.47;1.52;;;;;;;22.36;52.65;98886.47;4924934;28;20043;-91
2023/08/29 01:53:18;;;;;;;4.63;2.10;;;;;;;21.95;52.81;98831.34;4973768;28;20030;-91
2023/08/29 01:55:48;;;;;;;2.53;1.17;;;;;;;22.24;52.98;98876.63;4959232;28;20145;-90
2023/08/29 01:58:15;;;;;;;5.80;2.42;;;;;;;22.29;53.12;98885.19;4973681;28;20035;-88
2023/08/29 02:00:41;;;;;;;3.00;2.22;;;;;;;22.06;53.14;98847.53;4955534;28;20038;-90
2023/08/29 02:03:07;;;;;;;4.25;2.25;;;;;;;22.24;53.54;98877.47;4973606;28;20121;-90
2023/08/29 02:05:34;;;;;;;3.05;2.00;;;;;;;22.41;53.06;98891.50;4955481;28;20114;-89
2023/08/29 02:08:00;;;;;;;4.93;2.45;;;;;;;22.04;53.32;98851.28;4986206;28;20023;-89
2023/08/29 02:10:25;;;;;;;3.00;1.98;;;;;;;22.23;53.27;98908.03;4975221;28;20121;-88
2023/08/29 02:12:51;;;;;;;4.63;2.22;;;;;;;22.11;53.24;98901.72;4992760;28;20043;-88
2023/08/29 02:15:16;;;;;;;1.98;1.55;;;;;;;21.88;53.27;98878.44;4992513;28;20122;-89
2023/08/29 02:17:41;;;;;;;8.10;1.40;;;;;;;22.01;53.20;98881.91;4988683;28;20039;-87
2023/08/29 02:20:08;;;;;;;4.20;2.95;;;;;;;21.90;53.62;98855.88;4974042;28;20101;-88
2023/08/29 02:22:34;;;;;;;3.08;2.30;;;;;;;21.76;53.60;98840.78;4992864;28;20026;-89
2023/08/29 02:25:02;;;;;;;4.03;2.28;;;;;;;21.89;53.91;98875.66;4975240;28;20030;-92
2023/08/29 02:27:27;;;;;;;3.67;1.75;;;;;;;22.05;53.86;98888.78;4974282;28;20038;-89
2023/08/29 02:29:53;;;;;;;1.85;1.52;;;;;;;22.10;53.99;98878.53;4974759;28;20124;-91
2023/08/29 02:32:20;;;;;;;6.05;2.60;;;;;;;21.97;53.69;98840.16;4975102;28;20126;-91
2023/08/29 02:34:45;;;;;;;2.58;2.28;;;;;;;21.92;54.15;98851.25;4992167;28;20023;-90
2023/08/29 02:37:11;;;;;;;2.13;1.58;;;;;;;22.12;54.53;98886.47;4993344;28;20033;-90
2023/08/29 02:39:38;;;;;;;1.60;1.27;;;;;;;22.05;54.51;98875.34;4982236;28;20039;-91
2023/08/29 02:42:03;;;;;;;3.35;2.15;;;;;;;21.77;54.77;98855.94;4972694;28;20069;-90
2023/08/29 02:44:30;;;;;;;3.25;1.90;;;;;;;21.73;54.51;98843.72;4973274;28;20517;-88
2023/08/29 02:46:56;;;;;;;6.18;2.05;;;;;;;21.90;54.67;98866.59;4972491;28;20097;-88
2023/08/29 02:49:21;;;;;;;1.90;1.05;;;;;;;21.88;54.94;98873.94;4975611;28;20477;-91
2023/08/29 02:51:46;;;;;;;2.20;1.40;;;;;;;21.97;55.06;98892.03;4971934;28;20146;-89
2023/08/29 02:54:13;;;;;;;3.05;2.38;;;;;;;21.85;55.26;98867.94;4972665;28;20030;-89
2023/08/29 02:56:39;;;;;;;2.30;2.08;;;;;;;21.73;55.04;98845.53;4969741;28;20417;-90
2023/08/29 02:59:05;;;;;;;5.25;2.58;;;;;;;21.87;55.27;98876.72;4991675;28;20441;-88
2023/08/29 03:01:30;;;;;;;2.95;1.95;;;;;;;21.71;55.18;98863.59;4956612;28;20042;-88
2023/08/29 03:03:56;;;;;;;1.95;0.80;;;;;;;21.45;55.19;98845.72;4954848;28;20031;-88
2023/08/29 03:06:21;;;;;;;3.13;1.27;;;;;;;21.66;54.97;98863.06;4989897;28;20034;-88
2023/08/29 03:08:47;;;;;;;2.47;1.30;;;;;;;21.56;55.22;98863.75;4991509;28;20443;-88
2023/08/29 03:11:12;;;;;;;2.45;1.63;;;;;;;21.60;55.56;98877.81;4983589;28;20042;-88
2023/08/29 03:13:38;;;;;;;5.05;1.70;;;;;;;21.26;55.85;98850.75;4971604;28;20043;-89
2023/08/29 03:16:11;;;;;;;2.75;2.15;;;;;;;21.50;56.14;98855.31;4971998;28;20042;-88
2023/08/29 03:18:36;;;;;;;8.55;2.25;;;;;;;21.40;56.39;98847.91;4972191;28;20038;-89
2023/08/29 03:21:06;;;;;;;2.97;1.77;;;;;;;21.44;56.33;98841.34;4972528;28;20056;-88
2023/08/29 03:23:33;;;;;;;1.55;1.33;;;;;;;21.74;56.40;98879.47;4971691;28;20406;-88
2023/08/29 03:26:05;;;;;;;1.50;1.30;;;;;;;21.41;56.24;98838.00;4971887;28;20026;-88
2023/08/29 03:28:31;;;;;;;3.92;1.63;;;;;;;21.44;56.17;98861.94;4972247;28;20041;-88
2023/08/29 03:30:56;;;;;;;3.42;2.28;;;;;;;21.40;56.11;98861.31;4954452;28;20031;-90
2023/08/29 03:33:22;;;;;;;2.75;1.95;;;;;;;21.36;55.96;98845.56;4974815;28;20062;-89
2023/08/29 03:35:58;;;;;;;3.35;1.67;;;;;;;20.93;56.94;98833.44;4971808;28;20508;-87
2023/08/29 03:38:23;;;;;;;1.95;1.33;;;;;;;20.66;58.00;98830.88;4956787;28;20112;-95
2023/08/29 03:40:56;;;;;;;2.42;1.45;;;;;;;21.00;58.04;98872.22;4972836;28;20130;-94
2023/08/29 03:43:22;;;;;;;2.13;1.15;;;;;;;21.09;57.57;98874.25;4983026;28;20523;-96
2023/08/29 03:46:02;;;;;;;5.55;2.70;;;;;;;21.13;57.37;98860.63;4993242;28;20038;-88
2023/08/29 03:48:28;;;;;;;2.75;1.63;;;;;;;21.12;57.44;98878.56;5000892;28;20053;-87
2023/08/29 03:50:54;;;;;;;1.63;1.10;;;;;;;21.13;57.15;98840.03;4995710;28;20064;-85
2023/08/29 03:53:19;;;;;;;3.17;1.80;;;;;;;21.20;57.48;98872.63;4996444;28;20481;-91
2023/08/29 03:55:45;;;;;;;1.50;0.60;;;;;;;21.19;57.30;98858.34;4962665;28;20038;-90
2023/08/29 03:58:12;;;;;;;3.55;2.38;;;;;;;21.14;57.37;98868.56;4981649;28;20035;-89
2023/08/29 04:00:38;;;;;;;5.60;3.42;;;;;;;20.84;57.48;98793.91;4971864;28;20029;-89
2023/08/29 04:03:06;;;;;;;2.58;2.10;;;;;;;21.23;57.84;98862.53;4972081;28;20105;-89
2023/08/29 04:05:32;;;;;;;1.80;1.67;;;;;;;21.11;57.57;98842.81;4973693;28;20108;-88
2023/08/29 04:07:58;;;;;;;14.45;2.08;;;;;;;21.23;57.71;98846.44;4954489;28;20501;-89
2023/08/29 04:10:23;;;;;;;2.67;1.60;;;;;;;21.05;57.26;98808.44;4991645;28;20420;-87
2023/08/29 04:12:49;;;;;;;2.22;1.90;;;;;;;21.15;56.88;98830.06;4991102;28;20133;-86
2023/08/29 04:15:14;;;;;;;1.52;1.02;;;;;;;21.21;56.88;98853.75;4987304;28;20054;-89
2023/08/29 04:17:40;;;;;;;6.55;2.53;;;;;;;21.06;56.18;98804.75;4972795;28;20034;-86
2023/08/29 04:20:08;;;;;;;3.35;2.25;;;;;;;21.32;55.45;98822.59;4989093;28;20117;-89
2023/08/29 04:22:38;;;;;;;1.73;1.38;;;;;;;21.38;55.52;98867.75;4966359;28;20066;-86
2023/08/29 04:25:07;;;;;;;6.10;1.80;;;;;;;21.20;56.51;98867.28;4990487;28;20031;-86
2023/08/29 04:27:33;;;;;;;3.13;2.00;;;;;;;21.31;56.81;98880.75;4987186;28;20074;-86
2023/08/29 04:29:59;;;;;;;2.80;1.45;;;;;;;21.10;56.67;98838.44;4988991;28;20030;-87
2023/08/29 04:32:24;;;;;;;2.38;1.50;;;;;;;21.37;56.84;98871.41;4993739;28;20035;-86
2023/08/29 04:34:50;;;;;;;3.97;2.70;;;;;;;21.25;56.68;98827.56;4974237;28;20100;-85
2023/08/29 04:37:16;;;;;;;1.77;0.93;;;;;;;21.50;56.70;98855.31;4974557;28;20034;-86
2023/08/29 04:39:42;;;;;;;2.92;2.50;;;;;;;21.57;56.45;98851.22;4974532;28;20059;-86
2023/08/29 04:42:07;;;;;;;2.42;1.73;;;;;;;21.71;56.73;98883.22;4980847;28;20583;-86
2023/08/29 04:44:33;;;;;;;3.72;1.58;;;;;;;21.65;56.26;98838.06;4976547;28;20084;-84
2023/08/29 04:46:59;;;;;;;3.22;1.75;;;;;;;21.58;56.62;98850.22;4982180;28;20070;-86
2023/08/29 04:49:25;;;;;;;4.25;2.05;;;;;;;21.56;56.07;98855.69;4993514;28;20128;-86
2023/08/29 04:51:50;;;;;;;7.25;4.95;;;;;;;21.63;55.88;98856.97;4994256;28;20030;-87
2023/08/29 04:54:16;;;;;;;5.20;3.40;;;;;;;21.65;56.38;98878.31;4979267;28;20043;-85
2023/08/29 04:56:41;;;;;;;6.55;4.65;;;;;;;21.35;56.26;98823.25;4974523;28;20035;-86
2023/08/29 04:59:07;;;;;;;5.63;4.07;;;;;;;21.81;56.78;98888.75;4974945;28;20041;-86
2023/08/29 05:01:33;;;;;;;4.70;4.25;;;;;;;21.74;56.27;98860.69;4987198;28;20117;-87
2023/08/29 05:03:58;;;;;;;10.18;5.68;;;;;;;21.89;56.52;98869.41;4980618;28;20200;-85
2023/08/29 05:06:25;;;;;;;8.23;4.85;;;;;;;22.09;56.64;98886.69;4980216;28;20477;-89
2023/08/29 05:08:51;;;;;;;12.27;5.88;;;;;;;22.16;56.74;98896.84;4986519;28;20048;-88
2023/08/29 05:11:17;;;;;;;7.18;5.35;;;;;;;22.07;55.71;98859.13;4991073;28;20034;-90
2023/08/29 05:13:43;;;;;;;5.82;4.78;;;;;;;22.52;55.52;98897.75;4986697;28;20074;-88
2023/08/29 05:16:08;;;;;;;7.88;5.57;;;;;;;22.27;54.97;98844.16;4981493;28;20543;-90
2023/08/29 05:18:34;;;;;;;8.57;6.03;;;;;;;22.37;54.18;98834.47;4973741;28;20023;-91
2023/08/29 05:20:59;;;;;;;7.88;5.10;;;;;;;22.81;54.35;98889.25;4957893;28;20495;-89
2023/08/29 05:23:25;;;;;;;6.80;5.03;;;;;;;22.65;53.44;98835.84;4979874;28;20022;-88
2023/08/29 05:25:51;;;;;;;6.25;3.47;;;;;;;22.83;52.68;98848.78;4978333;28;20082;-88
2023/08/29 05:28:16;;;;;;;10.50;6.15;;;;;;;23.07;52.74;98857.59;4982177;28;20467;-87
2023/08/29 05:30:42;;;;;;;7.57;4.57;;;;;;;23.36;52.25;98885.88;4971830;28;20039;-88
2023/08/29 05:33:08;;;;;;;5.55;3.58;;;;;;;23.55;52.00;98885.22;4966743;28;20145;-87
2023/08/29 05:35:33;;;;;;;18.00;2.63;;;;;;;23.51;51.46;98851.47;4985801;28;20114;-88
2023/08/29 05:37:59;;;;;;;6.68;3.70;;;;;;;24.10;51.16;98904.06;4990237;28;20117;-83
2023/08/29 05:40:25;;;;;;;7.05;4.05;;;;;;;24.21;50.68;98877.06;4987044;28;20409;-84
2023/08/29 05:42:50;;;;;;;8.40;3.60;;;;;;;24.28;49.42;98870.19;4986012;28;20026;-83
2023/08/29 05:45:16;;;;;;;4.18;3.13;;;;;;;24.46;49.57;98856.97;4990217;28;20044;-84
2023/08/29 05:47:41;;;;;;;4.05;2.92;;;;;;;24.91;48.54;98865.78;4997021;28;20045;-84
2023/08/29 05:50:08;;;;;;;5.20;3.60;;;;;;;24.89;48.30;98838.94;4972468;28;20117;-84
2023/08/29 05:52:33;;;;;;;5.03;3.50;;;;;;;25.28;47.68;98846.31;4992387;28;20050;-84
2023/08/29 05:54:59;;;;;;;5.82;3.95;;;;;;;25.48;46.88;98847.25;4988342;28;20073;-85
2023/08/29 05:57:25;;;;;;;7.85;3.95;;;;;;;25.77;46.48;98885.13;4987935;28;20076;-85
2023/08/29 05:59:51;;;;;;;7.05;4.68;;;;;;;25.89;46.00;98842.63;4974294;28;20022;-84
2023/08/29 06:02:16;;;;;;;5.15;2.80;;;;;;;26.20;44.76;98845.22;4996744;28;20117;-84
2023/08/29 06:04:42;;;;;;;14.68;6.13;;;;;;;26.53;44.32;98843.03;4988082;28;20031;-84
2023/08/29 06:07:07;;;;;;;11.68;5.05;;;;;;;26.49;43.93;98841.59;4985669;28;20516;-84
2023/08/29 06:09:33;;;;;;;8.02;4.43;;;;;;;26.91;43.27;98854.75;4985021;28;20490;-84
2023/08/29 06:11:59;;;;;;;8.88;4.28;;;;;;;27.08;43.01;98834.16;4978968;28;20133;-83
2023/08/29 06:14:25;;;;;;;9.15;4.72;;;;;;;27.38;42.21;98838.47;4991393;28;20041;-83
2023/08/29 06:16:50;;;;;;;5.82;4.43;;;;;;;27.48;42.10;98860.06;4991601;28;20037;-87
2023/08/29 06:19:17;;;;;;;6.82;3.90;;;;;;;27.25;42.00;98857.75;4997146;28;20420;-89
2023/08/29 06:21:42;;;;;;;7.55;4.53;;;;;;;27.31;41.09;98827.41;5007230;28;20045;-87
2023/08/29 06:24:08;;;;;;;4.47;2.85;;;;;;;27.89;40.55;98852.38;4988628;28;20150;-87
2023/08/29 06:26:34;;;;;;;7.60;2.50;;;;;;;28.01;40.80;98867.44;4991465;28;20077;-85
2023/08/29 06:28:59;;;;;;;7.20;3.53;;;;;;;28.41;41.11;98884.22;4978746;28;20612;-86
2023/08/29 06:31:24;;;;;;;4.72;3.50;;;;;;;28.17;40.69;98830.63;4982086;28;20038;-89
2023/08/29 06:33:50;;;;;;;5.85;3.05;;;;;;;28.53;40.27;98845.00;4957735;28;20476;-89
2023/08/29 06:36:15;;;;;;;3.63;1.75;;;;;;;28.97;38.58;98841.38;4973882;28;20072;-90
2023/08/29 06:38:42;;;;;;;8.25;2.92;;;;;;;29.16;37.74;98844.84;4973727;28;20137;-90
2023/08/29 06:41:08;;;;;;;3.53;1.90;;;;;;;29.45;37.77;98864.34;4974170;28;20117;-89
2023/08/29 06:43:33;;;;;;;4.60;2.67;;;;;;;29.17;37.96;98800.41;4990553;28;20117;-89
2023/08/29 06:45:59;;;;;;;5.00;3.33;;;;;;;29.45;36.85;98831.75;4982369;28;20073;-90
2023/08/29 06:48:24;;;;;;;5.13;2.28;;;;;;;29.45;37.26;98853.47;4984963;28;20026;-88
2023/08/29 06:50:50;;;;;;;4.28;3.33;;;;;;;29.64;37.24;98840.63;4990706;28;20409;-88
2023/08/29 06:53:15;;;;;;;4.75;2.42;;;;;;;29.96;35.35;98804.53;4989663;28;20038;-89
2023/08/29 06:55:41;;;;;;;4.55;2.40;;;;;;;30.54;35.25;98850.78;4990739;28;20030;-90
2023/08/29 06:58:07;;;;;;;7.80;2.67;;;;;;;30.10;36.13;98800.28;4988895;28;20512;-87
2023/08/29 07:00:34;;;;;;;7.82;4.15;;;;;;;30.13;34.99;98824.41;4962693;28;20090;-96
2023/08/29 07:03:00;;;;;;;6.57;3.33;;;;;;;30.51;34.88;98840.25;4974017;28;20030;-96
2023/08/29 07:05:27;;;;;;;5.20;3.15;;;;;;;30.63;34.76;98794.44;4962474;28;20036;-92
2023/08/29 07:07:53;;;;;;;5.05;3.33;;;;;;;30.94;34.12;98810.00;4983767;28;20563;-90
2023/08/29 07:10:39;;;;;;;8.35;4.13;;;;;;;30.92;34.69;98782.97;5028053;23;20062;-94
2023/08/29 07:13:05;;;;;;;11.68;3.72;;;;;;;31.40;33.54;98796.56;4967250;28;20066;-92
2023/08/29 07:15:30;;;;;;;8.07;4.93;;;;;;;31.10;34.33;98788.22;4981249;28;20121;-90
2023/08/29 07:17:56;;;;;;;8.75;5.28;;;;;;;31.24;33.63;98798.34;4954726;28;20037;-96
2023/08/29 07:20:22;;;;;;;5.50;3.38;;;;;;;31.60;33.37;98805.16;4951387;28;20069;-94
2023/08/29 07:22:47;;;;;;;6.65;4.78;;;;;;;32.07;32.31;98828.69;4967858;28;20038;-94
2023/08/29 07:25:14;;;;;;;8.88;4.95;;;;;;;32.07;32.08;98803.28;4955487;28;20069;-94
2023/08/29 07:27:40;;;;;;;6.68;4.22;;;;;;;31.39;31.63;98790.28;4974553;28;20030;-96
2023/08/29 07:30:15;;;;;;;20.27;4.90;;;;;;;31.36;31.92;98768.84;4971152;28;20113;-90
2023/08/29 07:32:45;;;;;;;10.18;5.80;;;;;;;32.12;32.24;98809.91;4973038;28;20041;-94
2023/08/29 07:35:16;;;;;;;9.13;6.15;;;;;;;32.09;32.17;98749.41;4974249;28;20039;-93
2023/08/29 07:37:41;;;;;;;10.95;6.10;;;;;;;32.73;31.35;98781.72;4953065;28;20038;-90
2023/08/29 07:40:08;;;;;;;8.40;5.38;;;;;;;32.91;30.78;98816.00;4952675;28;20035;-90
2023/08/29 07:42:34;;;;;;;13.88;7.15;;;;;;;32.91;30.61;98805.91;4954258;28;20051;-91
2023/08/29 07:45:00;;;;;;;9.68;5.97;;;;;;;32.77;30.10;98812.22;4954950;28;20494;-92
2023/08/29 07:47:25;;;;;;;11.80;7.13;;;;;;;33.05;30.30;98808.84;4970175;28;20050;-90
2023/08/29 07:49:51;;;;;;;10.82;8.02;;;;;;;32.82;30.22;98829.72;4952834;28;20453;-91
2023/08/29 07:52:16;;;;;;;13.68;7.88;;;;;;;32.27;31.49;98774.50;4953992;28;20037;-92
2023/08/29 07:54:42;;;;;;;9.85;7.20;;;;;;;32.91;29.63;98805.06;4953832;28;20042;-90
2023/08/29 07:57:07;;;;;;;14.32;8.02;;;;;;;33.17;29.58;98797.22;4953549;28;20031;-90
2023/08/29 07:59:33;;;;;;;17.88;10.15;;;;;;;33.48;28.87;98773.44;4971152;28;20498;-90
2023/08/29 08:01:58;;;;;;;13.30;9.90;;;;;;;33.56;28.88;98789.72;4971378;28;20035;-90
2023/08/29 08:04:24;;;;;;;12.85;8.75;;;;;;;33.72;28.70;98769.50;4969986;28;20030;-91
2023/08/29 08:06:49;;;;;;;17.25;9.48;;;;;;;33.51;29.02;98790.28;4970722;28;20027;-90
2023/08/29 08:09:16;;;;;;;14.82;8.90;;;;;;;33.65;29.60;98784.97;4970843;28;20461;-90
2023/08/29 08:11:41;;;;;;;18.33;10.88;;;;;;;33.67;30.07;98785.63;4969422;28;20077;-91
2023/08/29 08:14:07;;;;;;;18.58;11.27;;;;;;;33.89;30.19;98784.63;4953728;28;20031;-90
2023/08/29 08:16:32;;;;;;;17.27;8.30;;;;;;;33.59;28.97;98756.53;4954005;28;20094;-91
2023/08/29 08:18:58;;;;;;;17.42;8.00;;;;;;;33.90;29.46;98763.59;4953790;28;20039;-90
2023/08/29 08:21:23;;;;;;;21.73;8.27;;;;;;;33.59;29.38;98758.44;4953786;28;20039;-91
2023/08/29 08:23:49;;;;;;;14.73;8.18;;;;;;;33.68;30.23;98768.19;4953321;28;20500;-90
2023/08/29 08:26:15;;;;;;;20.42;8.27;;;;;;;33.49;29.27;98747.78;4970406;28;20109;-91
2023/08/29 08:28:40;;;;;;;12.50;8.52;;;;;;;33.84;29.92;98746.06;4953540;28;20058;-90
2023/08/29 08:31:06;;;;;;;17.95;8.13;;;;;;;33.90;29.57;98689.75;4971305;28;20031;-91
2023/08/29 08:33:32;;;;;;;8.95;6.93;;;;;;;33.73;29.01;98733.75;4970480;28;20127;-89
2023/08/29 08:35:58;;;;;;;19.20;8.30;;;;;;;33.90;29.24;98707.00;4971152;28;20542;-89
2023/08/29 08:38:23;;;;;;;13.30;6.70;;;;;;;33.97;28.82;98703.47;4970195;28;20038;-89
2023/08/29 08:40:49;;;;;;;12.50;7.13;;;;;;;33.91;29.29;98707.84;4970363;28;20023;-93
2023/08/29 08:43:17;;;;;;;8.57;5.53;;;;;;;33.76;29.70;98705.19;4982758;28;20042;-95
2023/08/29 08:45:44;;;;;;;14.50;7.35;;;;;;;33.52;29.16;98710.00;4972089;28;20117;-94
2023/08/29 08:48:10;;;;;;;10.40;6.45;;;;;;;34.04;28.97;98753.59;4973191;28;20053;-91
2023/08/29 08:50:36;;;;;;;8.55;5.05;;;;;;;33.69;29.58;98699.66;4956458;28;20035;-92
2023/08/29 08:53:02;;;;;;;7.97;6.07;;;;;;;33.75;28.88;98714.44;4972926;28;20026;-90
2023/08/29 08:55:29;;;;;;;12.93;6.10;;;;;;;33.82;28.94;98712.63;4987024;28;20108;-94
2023/08/29 08:57:58;;;;;;;10.63;5.50;;;;;;;34.02;30.07;98725.63;4963701;28;20031;-94
2023/08/29 09:00:24;;;;;;;9.50;6.32;;;;;;;34.07;28.70;98690.28;4970290;28;20039;-96
2023/08/29 09:02:53;;;;;;;6.88;4.55;;;;;;;34.45;28.79;98706.38;4953771;28;20436;-90
2023/08/29 09:05:22;;;;;;;10.73;5.68;;;;;;;34.45;28.47;98670.78;4987959;28;20062;-91
2023/08/29 09:11:28;;;;;;;4.05;2.63;;;;;;;34.60;27.58;98722.66;4980940;28;20069;-87
2023/08/29 09:13:53;;;;;;;4.00;2.15;;;;;;;34.16;28.67;98664.47;4980549;28;20046;-89
2023/08/29 09:17:12;;;;;;;3.70;2.70;;;;;;;34.00;29.08;98686.66;4977252;28;20078;-88
2023/08/29 09:19:38;;;;;;;4.35;2.25;;;;;;;33.68;29.67;98636.97;4982045;28;20034;-93
2023/08/29 09:22:04;;;;;;;3.25;2.17;;;;;;;33.45;29.75;98662.63;4970827;28;20441;-93
2023/08/29 09:24:34;;;;;;;3.13;2.00;;;;;;;33.61;29.43;98647.00;4974610;28;20034;-94
2023/08/29 09:27:23;;;;;;;4.53;2.58;;;;;;;33.96;29.16;98674.44;4974104;28;20070;-90
2023/08/29 09:34:00;;;;;;;2.92;2.25;;;;;;;34.36;28.06;98658.31;4975098;28;20042;-90
2023/08/29 09:36:33;;;;;;;4.35;2.00;;;;;;;34.29;29.14;98625.41;4975092;28;20034;-94
2023/08/29 09:39:00;;;;;;;4.00;2.58;;;;;;;34.40;28.99;98615.78;4963351;28;20038;-91
2023/08/29 09:41:25;;;;;;;5.93;2.90;;;;;;;34.63;28.36;98604.53;4980883;28;20031;-92
2023/08/29 09:43:51;;;;;;;2.47;1.95;;;;;;;34.54;28.62;98587.44;4957011;28;20496;-94
2023/08/29 09:46:21;;;;;;;6.85;2.97;;;;;;;34.27;28.47;98583.75;4992848;28;20069;-95
2023/08/29 09:48:55;;;;;;;3.63;2.15;;;;;;;33.98;29.73;98591.13;4964654;28;20034;-94
2023/08/29 09:51:27;;;;;;;3.05;1.92;;;;;;;33.77;29.86;98578.38;4962067;28;20045;-95
2023/08/29 09:53:56;;;;;;;4.05;2.35;;;;;;;34.10;30.14;98587.84;4976391;28;20500;-90
2023/08/29 09:56:24;;;;;;;2.20;1.83;;;;;;;33.98;29.82;98552.00;4976769;28;20038;-95
2023/08/29 09:58:51;;;;;;;4.57;2.35;;;;;;;33.96;29.30;98567.78;4976203;28;20038;-96
2023/08/29 10:01:31;;;;;;;3.85;1.90;;;;;;;34.30;29.56;98613.44;4979254;28;20046;-93
2023/08/29 10:04:01;;;;;;;4.60;2.67;;;;;;;33.71;31.52;98549.06;4977864;28;20481;-90
2023/08/29 10:06:38;;;;;;;4.22;1.58;;;;;;;34.23;30.42;98591.50;4975983;28;20133;-89
2023/08/29 10:09:07;;;;;;;3.65;2.42;;;;;;;33.97;29.56;98523.81;4974914;28;20069;-92
2023/08/29 10:11:43;;;;;;;3.33;1.63;;;;;;;34.32;30.97;98566.72;4974847;28;20057;-90
2023/08/29 10:14:21;;;;;;;3.08;1.92;;;;;;;34.36;29.28;98562.53;4993614;28;20065;-92
2023/08/29 10:16:48;;;;;;;3.55;2.10;;;;;;;34.15;29.96;98497.78;4993438;28;20031;-94
2023/08/29 10:19:32;;;;;;;4.75;2.47;;;;;;;34.64;31.08;98548.72;4958591;28;20121;-89
2023/08/29 10:22:01;;;;;;;2.70;1.65;;;;;;;34.49;30.50;98499.59;4973770;28;20041;-91
2023/08/29 10:24:30;;;;;;;4.72;2.10;;;;;;;34.69;29.87;98535.25;4973459;28;20117;-94
2023/08/29 10:27:05;;;;;;;3.53;1.80;;;;;;;34.69;29.49;98493.34;4970064;28;20034;-93
2023/08/29 10:29:32;;;;;;;2.70;1.70;;;;;;;34.55;28.07;98493.31;4962537;28;20033;-89
2023/08/29 10:31:59;;;;;;;2.97;1.80;;;;;;;34.94;29.33;98499.06;4988823;28;20041;-92
2023/08/29 10:34:30;;;;;;;7.32;3.00;;;;;;;35.19;29.77;98499.31;4981780;28;20469;-90
2023/08/29 10:36:56;;;;;;;3.60;1.73;;;;;;;35.00;30.61;98480.97;4991297;28;20088;-94
2023/08/29 10:39:25;;;;;;;2.80;1.67;;;;;;;35.21;29.96;98510.91;4975537;28;20396;-95
2023/08/29 10:41:53;;;;;;;2.60;1.95;;;;;;;35.29;29.58;98497.00;4967879;28;20077;-95
2023/08/29 10:44:31;;;;;;;2.53;1.63;;;;;;;35.70;30.52;98527.97;4976881;28;20038;-95
2023/08/29 10:47:20;;;;;;;2.75;1.70;;;;;;;35.95;30.24;98527.31;4974954;28;20045;-95
2023/08/29 10:49:47;;;;;;;5.50;2.72;;;;;;;35.68;27.63;98491.66;4992118;28;20496;-94
2023/08/29 10:52:14;;;;;;;4.35;1.33;;;;;;;35.60;26.33;98487.25;4993343;28;20061;-94
2023/08/29 10:54:40;;;;;;;3.85;1.83;;;;;;;36.03;26.92;98494.13;4977069;28;20045;-96
2023/08/29 10:57:42;;;;;;;5.10;2.10;;;;;;;35.94;25.45;98462.50;4992277;28;20106;-96
2023/08/29 11:00:33;;;;;;;1.77;1.27;;;;;;;36.26;26.52;98477.16;4959969;28;20264;-93
2023/08/29 11:03:10;;;;;;;3.33;2.13;;;;;;;36.53;25.22;98507.22;4989729;28;20137;-90
2023/08/29 11:05:39;;;;;;;2.13;1.63;;;;;;;36.29;25.10;98492.38;4992583;28;20109;-90
2023/08/29 11:08:23;;;;;;;2.80;2.20;;;;;;;36.43;23.63;98480.25;4993664;28;20018;-92
2023/08/29 11:11:31;;;;;;;4.75;1.45;;;;;;;36.44;22.10;98495.66;4974925;28;20054;-93
2023/08/29 11:14:08;;;;;;;4.03;1.67;;;;;;;36.28;22.57;98471.47;4992008;28;20084;-92
2023/08/29 11:17:04;;;;;;;2.80;1.95;;;;;;;36.40;22.63;98471.63;4992254;28;20525;-91
2023/08/29 11:19:30;;;;;;;2.30;1.40;;;;;;;36.27;22.45;98442.31;4991700;28;20500;-91
2023/08/29 11:21:58;;;;;;;2.38;1.58;;;;;;;36.35;21.77;98459.38;4992277;28;20041;-91
2023/08/29 11:24:29;;;;;;;2.67;2.08;;;;;;;36.42;22.01;98434.63;4969153;28;20038;-96
2023/08/29 11:26:58;;;;;;;8.30;2.53;;;;;;;35.97;22.65;98419.00;4966344;28;20069;-90
2023/08/29 11:29:23;;;;;;;2.58;1.63;;;;;;;35.86;22.64;98419.72;4990776;28;20042;-85
2023/08/29 11:31:49;;;;;;;2.20;1.30;;;;;;;36.06;22.38;98418.78;4977228;28;20026;-91
2023/08/29 11:34:20;;;;;;;2.20;1.60;;;;;;;36.51;22.71;98433.31;4991633;28;20102;-91
2023/08/29 11:36:50;;;;;;;2.25;1.70;;;;;;;36.68;22.33;98432.78;4974089;28;20986;-93
2023/08/29 11:39:21;;;;;;;2.55;2.03;;;;;;;36.61;22.37;98431.97;4992555;28;20049;-89
2023/08/29 11:41:46;;;;;;;3.88;1.45;;;;;;;36.42;22.47;98407.19;4985810;28;20035;-89
2023/08/29 11:44:12;;;;;;;2.30;1.60;;;;;;;36.50;22.26;98409.66;4982013;28;20033;-90